Pedro Bay, Alaska
Current Conditions -  °F | °C
As of 12:01 AM on Thursday 27 Nov 2014 (Local Time) from PAIL Reporting Station
Broken Clouds Broken Clouds  
Wind Chill: 21°   Ceiling: 2200
Heat Index: 29°   Visibility: 10mi
Dew Point: 26°   Wind: 8mph
Humidity: 89%   Direction: 350°N
Pressure: 30.28"   Gusts: NA
Location:  59.79°N, 154.14°W
Report Text: PAIL 270901Z AUTO 35007KT 10SM BKN022 BKN029 M02/M03 A3028 RMK AO2 T10171033 TSNO
Loading
Personal Weather Stations






























Interactive Weather Map New forecast layout! Learn more

10-Day Weather Forecast

Advertisements
Track Severe Weather on mobile